Time;durP1;ratioP1;P1;durP2;ratioP2;P2;SDS_P1;SDS_P2;PMS_P1;PMS_P2;Temp;Humidity;BMP_temperature;BMP_pressure;BME280_temperature;BME280_humidity;BME280_pressure;Samples;Min_cycle;Max_cycle;Signal;HPM_P1;HPM_P2
2024/01/16 00:01:52;;;;;;;10.82;3.53;;;;;;;;;;5050404;28;20036;-67
2024/01/16 00:04:17;;;;;;;4.35;2.60;;;;;;;;;;5049793;28;20049;-66
2024/01/16 00:06:43;;;;;;;3.50;1.92;;;;;;;;;;5050011;28;20133;-66
2024/01/16 00:09:09;;;;;;;18.15;2.00;;;;;;;;;;5049932;28;20103;-67
2024/01/16 00:11:44;;;;;;;10.13;3.05;;;;;;;;;;5049950;28;20040;-67
2024/01/16 00:14:09;;;;;;;5.63;3.17;;;;;;;;;;5050618;28;20044;-67
2024/01/16 00:16:50;;;;;;;4.55;2.10;;;;;;;;;;5048838;28;20041;-66
2024/01/16 00:19:16;;;;;;;5.88;2.30;;;;;;;;;;5040947;28;20051;-68
2024/01/16 00:21:42;;;;;;;2.83;1.83;;;;;;;;;;5050120;28;20037;-66
2024/01/16 00:24:08;;;;;;;3.88;2.33;;;;;;;;;;5050222;28;20056;-67
2024/01/16 00:26:33;;;;;;;2.70;1.58;;;;;;;;;;5048592;28;20037;-67
2024/01/16 00:28:59;;;;;;;9.80;1.58;;;;;;;;;;5048885;28;20041;-67
2024/01/16 00:31:24;;;;;;;2.53;1.88;;;;;;;;;;5049425;28;20152;-67
2024/01/16 00:33:49;;;;;;;4.68;2.47;;;;;;;;;;5049634;28;20091;-66
2024/01/16 00:36:15;;;;;;;4.88;1.88;;;;;;;;;;5049752;28;20045;-66
2024/01/16 00:38:40;;;;;;;5.22;1.70;;;;;;;;;;5049917;28;20029;-66
2024/01/16 00:41:06;;;;;;;6.13;2.90;;;;;;;;;;5049704;28;20037;-66
2024/01/16 00:43:32;;;;;;;3.63;2.08;;;;;;;;;;5049983;28;20627;-66
2024/01/16 00:45:57;;;;;;;6.28;2.85;;;;;;;;;;5049667;28;20033;-66
2024/01/16 00:48:22;;;;;;;7.72;1.85;;;;;;;;;;5050010;28;20396;-66
2024/01/16 00:50:49;;;;;;;4.60;2.65;;;;;;;;;;5080800;28;20638;-67
2024/01/16 00:53:16;;;;;;;3.42;1.55;;;;;;;;;;5049971;28;20095;-66
2024/01/16 00:55:41;;;;;;;2.83;1.70;;;;;;;;;;5049265;28;20029;-67
2024/01/16 00:58:06;;;;;;;4.43;2.20;;;;;;;;;;5050019;28;20049;-66
2024/01/16 01:00:33;;;;;;;3.00;1.70;;;;;;;;;;5049805;28;20037;-67
2024/01/16 01:02:59;;;;;;;10.10;1.85;;;;;;;;;;5048555;28;20689;-66
2024/01/16 01:05:28;;;;;;;2.35;1.52;;;;;;;;;;5049643;28;20037;-66
2024/01/16 01:07:56;;;;;;;2.92;1.35;;;;;;;;;;5049798;28;20052;-67
2024/01/16 01:10:22;;;;;;;6.80;3.33;;;;;;;;;;5049495;28;20056;-67
2024/01/16 01:12:47;;;;;;;3.42;1.70;;;;;;;;;;5049679;28;20114;-66
2024/01/16 01:15:13;;;;;;;4.40;1.67;;;;;;;;;;5049678;28;20045;-67
2024/01/16 01:17:39;;;;;;;6.07;2.42;;;;;;;;;;5052850;28;20025;-67
2024/01/16 01:20:06;;;;;;;4.30;1.77;;;;;;;;;;5053057;28;20045;-66
2024/01/16 01:22:31;;;;;;;16.92;2.03;;;;;;;;;;5053562;28;20068;-67
2024/01/16 01:24:56;;;;;;;8.27;1.77;;;;;;;;;;5053000;28;20472;-66
2024/01/16 01:27:21;;;;;;;5.72;3.08;;;;;;;;;;5053266;28;20433;-67
2024/01/16 01:29:47;;;;;;;2.83;1.38;;;;;;;;;;5059652;28;20685;-66
2024/01/16 01:32:12;;;;;;;10.05;2.97;;;;;;;;;;5051580;28;20521;-68
2024/01/16 01:34:38;;;;;;;4.03;2.28;;;;;;;;;;5052983;28;20036;-66
2024/01/16 01:37:03;;;;;;;12.13;2.17;;;;;;;;;;5053317;28;20047;-67
2024/01/16 01:39:30;;;;;;;4.50;1.77;;;;;;;;;;5052716;28;20033;-66
2024/01/16 01:41:55;;;;;;;6.53;2.10;;;;;;;;;;5052831;28;20039;-67
2024/01/16 01:44:20;;;;;;;2.10;1.50;;;;;;;;;;5053068;28;20116;-66
2024/01/16 01:46:46;;;;;;;5.63;1.52;;;;;;;;;;5051893;28;20453;-67
2024/01/16 01:49:13;;;;;;;5.38;2.00;;;;;;;;;;5052827;28;20041;-68
2024/01/16 01:51:39;;;;;;;3.72;2.38;;;;;;;;;;5051665;28;20037;-65
2024/01/16 01:54:04;;;;;;;3.22;1.25;;;;;;;;;;5052734;28;20025;-66
2024/01/16 01:56:30;;;;;;;2.42;1.60;;;;;;;;;;5052414;28;20476;-66
2024/01/16 01:58:58;;;;;;;5.00;2.38;;;;;;;;;;5052850;28;20033;-66
2024/01/16 02:01:25;;;;;;;2.25;1.58;;;;;;;;;;5051393;28;20029;-67
2024/01/16 02:03:52;;;;;;;2.72;1.40;;;;;;;;;;5052787;28;20041;-66
2024/01/16 02:06:17;;;;;;;7.13;1.55;;;;;;;;;;5052513;28;20033;-66
2024/01/16 02:08:43;;;;;;;1.95;1.20;;;;;;;;;;5052898;28;20464;-67
2024/01/16 02:11:09;;;;;;;1.45;1.30;;;;;;;;;;5083328;28;20107;-66
2024/01/16 02:13:35;;;;;;;3.75;1.90;;;;;;;;;;5052428;28;20500;-66
2024/01/16 02:16:00;;;;;;;2.25;1.30;;;;;;;;;;5052036;28;20032;-67
2024/01/16 02:18:26;;;;;;;2.90;1.38;;;;;;;;;;5052238;28;20041;-66
2024/01/16 02:20:51;;;;;;;3.33;1.25;;;;;;;;;;5052050;28;20044;-66
2024/01/16 02:23:26;;;;;;;5.03;1.65;;;;;;;;;;5052437;28;20174;-66
2024/01/16 02:25:51;;;;;;;2.03;1.52;;;;;;;;;;5047997;28;20048;-66
2024/01/16 02:28:17;;;;;;;3.55;1.75;;;;;;;;;;5083558;28;20385;-66
2024/01/16 02:30:42;;;;;;;3.65;1.65;;;;;;;;;;5052039;28;20111;-65
2024/01/16 02:33:08;;;;;;;2.22;1.25;;;;;;;;;;5052256;28;20171;-66
2024/01/16 02:35:33;;;;;;;5.22;2.45;;;;;;;;;;5051595;28;20041;-66
2024/01/16 02:38:00;;;;;;;1.90;1.30;;;;;;;;;;5052349;28;20025;-66
2024/01/16 02:40:26;;;;;;;10.23;1.25;;;;;;;;;;5051535;28;20036;-67
2024/01/16 02:42:51;;;;;;;1.23;1.13;;;;;;;;;;5051877;28;20523;-66
2024/01/16 02:45:17;;;;;;;3.28;1.73;;;;;;;;;;5051675;28;20041;-66
2024/01/16 02:47:42;;;;;;;2.78;1.55;;;;;;;;;;5048023;28;20045;-66
2024/01/16 02:50:09;;;;;;;2.38;1.48;;;;;;;;;;5045226;28;20040;-66
2024/01/16 02:52:35;;;;;;;2.95;1.77;;;;;;;;;;5051893;28;20118;-66
2024/01/16 02:55:00;;;;;;;2.10;1.58;;;;;;;;;;5049898;28;20599;-66
2024/01/16 02:57:26;;;;;;;3.13;2.10;;;;;;;;;;5050798;28;20083;-66
2024/01/16 02:59:51;;;;;;;4.75;1.85;;;;;;;;;;5048470;28;20029;-67
2024/01/16 03:02:16;;;;;;;1.73;0.90;;;;;;;;;;5051218;28;20056;-66
2024/01/16 03:04:41;;;;;;;3.05;1.15;;;;;;;;;;5049304;28;20123;-67
2024/01/16 03:07:07;;;;;;;4.32;1.92;;;;;;;;;;5051357;28;20104;-66
2024/01/16 03:09:32;;;;;;;2.00;1.48;;;;;;;;;;5051270;28;20053;-66
2024/01/16 03:11:59;;;;;;;4.10;1.83;;;;;;;;;;5050972;28;20492;-67
2024/01/16 03:14:24;;;;;;;5.70;2.80;;;;;;;;;;5051300;28;20021;-66
2024/01/16 03:16:50;;;;;;;5.43;1.73;;;;;;;;;;5050550;28;20033;-67
2024/01/16 03:19:15;;;;;;;5.10;1.73;;;;;;;;;;5049564;28;20044;-66
2024/01/16 03:21:41;;;;;;;3.28;1.38;;;;;;;;;;5050819;28;20505;-66
2024/01/16 03:24:06;;;;;;;2.25;1.35;;;;;;;;;;5049115;28;20051;-67
2024/01/16 03:26:32;;;;;;;2.40;1.67;;;;;;;;;;5049393;28;20492;-66
2024/01/16 03:28:58;;;;;;;6.18;1.65;;;;;;;;;;5050664;28;20114;-66
2024/01/16 03:31:23;;;;;;;5.18;2.20;;;;;;;;;;5051030;28;20469;-66
2024/01/16 03:33:48;;;;;;;3.42;1.58;;;;;;;;;;5080340;28;20043;-66
2024/01/16 03:36:15;;;;;;;2.63;1.17;;;;;;;;;;5049215;28;20499;-67
2024/01/16 03:38:42;;;;;;;3.97;1.52;;;;;;;;;;5050728;28;20056;-66
2024/01/16 03:41:07;;;;;;;8.40;2.10;;;;;;;;;;5048926;28;20373;-66
2024/01/16 03:43:36;;;;;;;2.20;1.15;;;;;;;;;;5045750;28;20040;-66
2024/01/16 03:46:01;;;;;;;2.50;1.50;;;;;;;;;;5050399;28;20400;-66
2024/01/16 03:48:27;;;;;;;1.40;1.02;;;;;;;;;;5050815;28;20045;-67
2024/01/16 03:50:54;;;;;;;5.60;1.98;;;;;;;;;;5049089;28;20029;-66
2024/01/16 03:53:19;;;;;;;5.38;2.15;;;;;;;;;;5050559;28;20036;-66
2024/01/16 03:55:45;;;;;;;2.75;1.05;;;;;;;;;;5050486;28;20067;-68
2024/01/16 03:58:10;;;;;;;3.05;1.23;;;;;;;;;;5050554;28;20056;-67
2024/01/16 04:00:36;;;;;;;1.73;1.23;;;;;;;;;;5050518;28;20041;-66
2024/01/16 04:03:01;;;;;;;1.70;0.98;;;;;;;;;;5050611;28;20044;-66
2024/01/16 04:05:27;;;;;;;2.60;1.40;;;;;;;;;;5049948;28;20032;-66
2024/01/16 04:07:52;;;;;;;4.95;1.85;;;;;;;;;;5050398;28;20539;-66
2024/01/16 04:10:18;;;;;;;3.17;0.98;;;;;;;;;;5049701;28;20051;-65
2024/01/16 04:12:43;;;;;;;2.30;1.30;;;;;;;;;;5049485;28;20033;-66
2024/01/16 04:15:09;;;;;;;4.15;1.80;;;;;;;;;;5049164;28;20072;-66
2024/01/16 04:17:34;;;;;;;4.05;2.03;;;;;;;;;;5050527;28;20048;-65
2024/01/16 04:19:59;;;;;;;3.78;1.27;;;;;;;;;;5049064;28;20043;-66
2024/01/16 04:22:24;;;;;;;2.33;1.58;;;;;;;;;;5050537;28;20044;-65
2024/01/16 04:24:50;;;;;;;2.97;1.27;;;;;;;;;;5048358;28;20033;-65
2024/01/16 04:27:15;;;;;;;4.68;1.83;;;;;;;;;;5049128;28;20048;-67
2024/01/16 04:29:40;;;;;;;10.52;1.77;;;;;;;;;;5048729;28;20033;-65
2024/01/16 04:32:06;;;;;;;8.77;1.77;;;;;;;;;;5049696;28;20068;-66
2024/01/16 04:34:31;;;;;;;2.38;1.40;;;;;;;;;;5049544;28;20033;-67
2024/01/16 04:36:56;;;;;;;2.35;1.45;;;;;;;;;;5049309;28;20029;-66
2024/01/16 04:39:22;;;;;;;2.33;1.27;;;;;;;;;;5049359;28;20116;-65
2024/01/16 04:41:48;;;;;;;3.53;1.73;;;;;;;;;;5049512;28;20028;-66
2024/01/16 04:44:14;;;;;;;7.57;1.65;;;;;;;;;;5049738;28;20041;-66
2024/01/16 04:46:39;;;;;;;2.55;1.60;;;;;;;;;;5049647;28;20037;-66
2024/01/16 04:49:05;;;;;;;4.95;1.67;;;;;;;;;;5049861;28;20108;-66
2024/01/16 04:51:30;;;;;;;5.40;1.25;;;;;;;;;;5051188;28;20116;-65
2024/01/16 04:53:55;;;;;;;4.88;1.42;;;;;;;;;;5054250;28;20075;-65
2024/01/16 04:56:21;;;;;;;5.85;1.23;;;;;;;;;;5052285;28;20432;-66
2024/01/16 04:58:46;;;;;;;3.85;1.45;;;;;;;;;;5054093;28;20393;-66
2024/01/16 05:01:12;;;;;;;4.82;1.38;;;;;;;;;;5053458;28;20041;-66
2024/01/16 05:03:38;;;;;;;3.40;1.10;;;;;;;;;;5053963;28;20040;-65
2024/01/16 05:06:03;;;;;;;2.25;1.35;;;;;;;;;;5053401;28;20043;-67
2024/01/16 05:08:30;;;;;;;2.28;1.10;;;;;;;;;;5052379;28;20037;-66
2024/01/16 05:10:55;;;;;;;2.22;1.20;;;;;;;;;;5053479;28;20469;-66
2024/01/16 05:13:21;;;;;;;3.97;1.75;;;;;;;;;;5053720;28;20032;-66
2024/01/16 05:15:46;;;;;;;9.95;1.30;;;;;;;;;;5053583;28;20069;-66
2024/01/16 05:18:11;;;;;;;2.60;1.27;;;;;;;;;;5053193;28;20384;-66
2024/01/16 05:20:37;;;;;;;6.60;1.58;;;;;;;;;;5052814;28;20482;-66
2024/01/16 05:23:02;;;;;;;2.47;1.40;;;;;;;;;;5053439;28;20041;-67
2024/01/16 05:25:28;;;;;;;3.97;1.40;;;;;;;;;;5053264;28;20048;-65
2024/01/16 05:27:53;;;;;;;4.40;1.33;;;;;;;;;;5054900;28;20036;-65
2024/01/16 05:30:18;;;;;;;3.17;1.42;;;;;;;;;;5058818;28;20037;-65
2024/01/16 05:32:44;;;;;;;3.17;1.63;;;;;;;;;;5053824;28;20028;-65
2024/01/16 05:35:10;;;;;;;2.50;1.23;;;;;;;;;;5053205;28;20040;-66
2024/01/16 05:37:35;;;;;;;2.70;1.80;;;;;;;;;;5053104;28;20401;-66
2024/01/16 05:40:02;;;;;;;1.85;1.05;;;;;;;;;;5051809;28;20144;-66
2024/01/16 05:42:28;;;;;;;5.53;1.42;;;;;;;;;;5052811;28;20496;-67
2024/01/16 05:44:53;;;;;;;2.42;1.40;;;;;;;;;;5052854;28;20037;-66
2024/01/16 05:47:19;;;;;;;2.03;1.08;;;;;;;;;;5053203;28;20112;-65
2024/01/16 05:49:44;;;;;;;2.60;1.35;;;;;;;;;;5052662;28;20496;-66
2024/01/16 05:52:10;;;;;;;3.28;1.52;;;;;;;;;;5053042;28;20040;-66
2024/01/16 05:54:35;;;;;;;1.48;0.90;;;;;;;;;;5042626;28;20100;-66
2024/01/16 05:57:00;;;;;;;2.15;1.13;;;;;;;;;;5051317;28;20045;-67
2024/01/16 05:59:26;;;;;;;2.38;1.27;;;;;;;;;;5051153;28;20403;-65
2024/01/16 06:01:51;;;;;;;1.17;0.82;;;;;;;;;;5052374;28;20033;-67
2024/01/16 06:04:17;;;;;;;3.50;1.45;;;;;;;;;;5084189;28;20120;-66
2024/01/16 06:06:47;;;;;;;2.63;1.42;;;;;;;;;;5052322;28;20123;-68
2024/01/16 06:09:13;;;;;;;4.78;1.73;;;;;;;;;;5052436;28;20396;-70
2024/01/16 06:11:40;;;;;;;2.03;1.38;;;;;;;;;;5052528;28;20385;-65
2024/01/16 06:14:06;;;;;;;1.73;1.15;;;;;;;;;;5084594;28;20029;-67
2024/01/16 06:16:32;;;;;;;2.55;1.27;;;;;;;;;;5052372;28;20431;-67
2024/01/16 06:18:57;;;;;;;3.00;1.52;;;;;;;;;;5051957;28;20037;-68
2024/01/16 06:21:23;;;;;;;2.60;1.30;;;;;;;;;;5052130;28;20591;-65
2024/01/16 06:23:48;;;;;;;5.97;2.20;;;;;;;;;;5049875;28;20445;-65
2024/01/16 06:26:13;;;;;;;7.03;2.28;;;;;;;;;;5050697;28;20052;-68
2024/01/16 06:28:42;;;;;;;5.28;2.05;;;;;;;;;;5086587;28;20035;-67
2024/01/16 06:31:07;;;;;;;10.55;3.70;;;;;;;;;;5052340;28;20036;-67
2024/01/16 06:33:32;;;;;;;3.35;2.17;;;;;;;;;;5052404;28;20049;-67
2024/01/16 06:35:58;;;;;;;3.60;2.05;;;;;;;;;;5051897;28;20047;-66
2024/01/16 06:38:23;;;;;;;5.05;2.33;;;;;;;;;;5052212;28;20025;-67
2024/01/16 06:40:48;;;;;;;5.63;2.30;;;;;;;;;;5052282;28;20040;-67
2024/01/16 06:43:15;;;;;;;9.68;2.65;;;;;;;;;;5051586;28;20063;-66
2024/01/16 06:45:42;;;;;;;8.32;2.35;;;;;;;;;;5051802;28;20025;-66
2024/01/16 06:48:07;;;;;;;6.97;2.55;;;;;;;;;;5051390;28;20040;-66
2024/01/16 06:50:33;;;;;;;4.30;1.25;;;;;;;;;;5051453;28;20045;-67
2024/01/16 06:52:58;;;;;;;3.38;1.92;;;;;;;;;;5051436;28;20384;-66
2024/01/16 06:55:23;;;;;;;4.65;2.38;;;;;;;;;;5051524;28;20045;-66
2024/01/16 06:57:49;;;;;;;4.13;2.20;;;;;;;;;;5051549;28;20392;-66
2024/01/16 07:00:15;;;;;;;4.95;1.70;;;;;;;;;;5051593;28;20473;-66
2024/01/16 07:02:43;;;;;;;4.10;2.50;;;;;;;;;;5051411;28;20531;-66
2024/01/16 07:05:09;;;;;;;4.88;1.92;;;;;;;;;;5051330;28;20087;-66
2024/01/16 07:07:34;;;;;;;7.78;2.38;;;;;;;;;;5051731;28;20067;-66
2024/01/16 07:09:59;;;;;;;2.83;1.67;;;;;;;;;;5049789;28;20105;-67
2024/01/16 07:12:25;;;;;;;8.63;1.67;;;;;;;;;;5050011;28;20047;-66
2024/01/16 07:14:50;;;;;;;5.45;2.13;;;;;;;;;;5050784;28;20028;-67
2024/01/16 07:17:16;;;;;;;7.13;1.85;;;;;;;;;;5051232;28;20040;-66
2024/01/16 07:19:41;;;;;;;4.72;1.58;;;;;;;;;;5050747;28;20036;-66
2024/01/16 07:22:06;;;;;;;7.60;1.67;;;;;;;;;;5051261;28;20064;-65
2024/01/16 07:24:32;;;;;;;5.28;1.92;;;;;;;;;;5050401;28;20047;-66
2024/01/16 07:26:58;;;;;;;2.72;1.35;;;;;;;;;;5051262;28;20124;-65
2024/01/16 07:29:23;;;;;;;4.85;1.63;;;;;;;;;;5058129;28;20086;-66
2024/01/16 07:31:48;;;;;;;4.32;1.88;;;;;;;;;;5050950;28;20049;-67
2024/01/16 07:34:19;;;;;;;6.78;1.77;;;;;;;;;;5050544;28;20040;-67
2024/01/16 07:36:45;;;;;;;11.75;2.30;;;;;;;;;;5050088;28;20032;-66
2024/01/16 07:39:10;;;;;;;15.48;4.97;;;;;;;;;;5050958;28;20040;-66
2024/01/16 07:41:35;;;;;;;15.02;6.05;;;;;;;;;;5050804;28;20029;-66
2024/01/16 07:44:01;;;;;;;9.95;4.28;;;;;;;;;;5050901;28;20029;-66
2024/01/16 07:46:26;;;;;;;10.07;4.57;;;;;;;;;;5050297;28;20068;-67
2024/01/16 07:48:51;;;;;;;17.38;6.35;;;;;;;;;;5050369;28;20074;-67
2024/01/16 07:51:17;;;;;;;15.60;5.93;;;;;;;;;;5050420;28;20037;-65
2024/01/16 07:53:42;;;;;;;15.55;6.03;;;;;;;;;;5050733;28;20047;-66
2024/01/16 07:56:07;;;;;;;15.20;3.97;;;;;;;;;;5050337;28;20098;-66
2024/01/16 07:58:33;;;;;;;12.20;4.18;;;;;;;;;;5082923;28;20460;-66
2024/01/16 08:00:58;;;;;;;11.85;4.85;;;;;;;;;;5049999;28;20500;-67
2024/01/16 08:03:23;;;;;;;10.07;3.83;;;;;;;;;;5050460;28;20039;-67
2024/01/16 08:05:48;;;;;;;8.82;3.10;;;;;;;;;;5049619;28;20128;-66
2024/01/16 08:08:14;;;;;;;15.68;3.78;;;;;;;;;;5050630;28;20069;-67
2024/01/16 08:10:42;;;;;;;8.63;3.50;;;;;;;;;;5050028;28;20057;-66
2024/01/16 08:13:07;;;;;;;8.10;3.08;;;;;;;;;;5050373;28;20021;-66
2024/01/16 08:15:34;;;;;;;8.00;4.10;;;;;;;;;;5049928;28;20029;-66
2024/01/16 08:18:00;;;;;;;7.63;2.90;;;;;;;;;;5049841;28;20041;-67
2024/01/16 08:20:25;;;;;;;5.68;2.53;;;;;;;;;;5049436;28;20040;-67
2024/01/16 08:22:51;;;;;;;9.63;2.80;;;;;;;;;;5049660;28;20118;-66
2024/01/16 08:25:16;;;;;;;8.18;3.80;;;;;;;;;;5049680;28;20037;-67
2024/01/16 08:27:43;;;;;;;4.82;2.08;;;;;;;;;;5048656;28;20096;-66
2024/01/16 08:30:09;;;;;;;5.22;2.58;;;;;;;;;;5044791;28;20037;-66
2024/01/16 08:32:35;;;;;;;6.22;2.38;;;;;;;;;;5049571;28;20090;-66
2024/01/16 08:35:00;;;;;;;8.05;2.60;;;;;;;;;;5079163;28;20025;-66
2024/01/16 08:37:25;;;;;;;4.63;2.05;;;;;;;;;;5052135;28;20090;-67
2024/01/16 08:39:51;;;;;;;5.32;2.35;;;;;;;;;;5050232;28;20033;-67
2024/01/16 08:42:17;;;;;;;3.35;1.67;;;;;;;;;;5049928;28;20393;-67
2024/01/16 08:44:43;;;;;;;9.05;2.47;;;;;;;;;;5050052;28;20033;-66
2024/01/16 08:47:09;;;;;;;4.05;2.03;;;;;;;;;;5048791;28;20033;-67
2024/01/16 08:49:35;;;;;;;3.95;2.50;;;;;;;;;;5050162;28;20029;-67
2024/01/16 08:52:00;;;;;;;6.30;2.10;;;;;;;;;;5049302;28;20055;-67
2024/01/16 08:54:26;;;;;;;6.75;2.30;;;;;;;;;;5048786;28;20094;-66
2024/01/16 08:56:52;;;;;;;4.57;2.25;;;;;;;;;;5049112;28;20056;-67
2024/01/16 08:59:17;;;;;;;4.03;1.97;;;;;;;;;;5048363;28;19921;-68
2024/01/16 09:01:43;;;;;;;4.78;2.13;;;;;;;;;;5050068;28;20078;-67
2024/01/16 09:04:08;;;;;;;11.73;4.00;;;;;;;;;;5049904;28;20040;-67
2024/01/16 09:06:34;;;;;;;13.30;4.95;;;;;;;;;;5049394;28;20108;-67
2024/01/16 09:08:59;;;;;;;8.27;4.38;;;;;;;;;;5050085;28;20037;-66
2024/01/16 09:11:25;;;;;;;9.30;4.53;;;;;;;;;;5049897;28;20112;-66
2024/01/16 09:13:51;;;;;;;10.15;4.57;;;;;;;;;;5049354;28;20041;-66
2024/01/16 09:16:16;;;;;;;9.30;4.40;;;;;;;;;;5049584;28;20044;-66
2024/01/16 09:18:42;;;;;;;15.90;4.03;;;;;;;;;;5043165;28;20059;-67
2024/01/16 09:21:07;;;;;;;10.77;4.97;;;;;;;;;;5049217;28;20109;-67
2024/01/16 09:23:32;;;;;;;12.35;4.28;;;;;;;;;;5049357;28;20041;-67
2024/01/16 09:25:58;;;;;;;13.60;4.85;;;;;;;;;;5048814;28;20021;-67
2024/01/16 09:28:24;;;;;;;7.80;4.35;;;;;;;;;;5055457;28;20048;-67
2024/01/16 09:30:49;;;;;;;8.95;3.92;;;;;;;;;;5044709;28;20040;-67
2024/01/16 09:33:16;;;;;;;9.80;3.80;;;;;;;;;;5048146;28;20051;-66
2024/01/16 09:35:42;;;;;;;10.80;4.35;;;;;;;;;;5047832;28;20044;-67
2024/01/16 09:38:07;;;;;;;9.98;5.18;;;;;;;;;;5050784;28;20037;-66
2024/01/16 09:40:33;;;;;;;9.88;5.25;;;;;;;;;;5052108;28;20055;-70
2024/01/16 09:42:58;;;;;;;14.05;6.65;;;;;;;;;;5050351;28;20048;-67
2024/01/16 09:45:24;;;;;;;13.70;6.22;;;;;;;;;;5084080;28;20671;-68
2024/01/16 09:47:51;;;;;;;14.25;6.07;;;;;;;;;;5050279;28;20474;-67
2024/01/16 09:50:19;;;;;;;;;;;;;;;;;;5050195;28;20037;-67
2024/01/16 09:52:47;;;;;;;;;;;;;;;;;;5084361;28;20046;-66
2024/01/16 09:55:13;;;;;;;;;;;;;;;;;;5052292;28;19928;-67
2024/01/16 09:57:42;;;;;;;;;;;;;;;;;;5051339;28;20058;-67
2024/01/16 10:00:11;;;;;;;;;;;;;;;;;;5050736;28;20047;-67
2024/01/16 10:02:36;;;;;;;;;;;;;;;;;;5051843;28;20678;-66
2024/01/16 10:05:02;;;;;;;;;;;;;;;;;;5052382;28;19916;-67
2024/01/16 10:07:28;;;;;;;;;;;;;;;;;;5052457;28;20262;-66
2024/01/16 10:09:55;;;;;;;;;;;;;;;;;;5051113;28;19913;-67
2024/01/16 10:12:21;;;;;;;;;;;;;;;;;;5052984;28;20054;-67
2024/01/16 10:14:46;;;;;;;;;;;;;;;;;;5051434;28;19924;-67
2024/01/16 10:17:15;;;;;;;;;;;;;;;;;;5084740;28;20229;-67
2024/01/16 10:19:47;;;;;;;;;;;;;;;;;;5052202;28;19917;-66
2024/01/16 10:22:12;;;;;;;;;;;;;;;;;;5052158;28;20103;-67
2024/01/16 10:24:38;;;;;;;;;;;;;;;;;;5052485;28;20441;-66
2024/01/16 10:27:03;;;;;;;;;;;;;;;;;;5052178;28;20250;-66
2024/01/16 10:29:28;;;;;;;;;;;;;;;;;;5051724;28;20531;-66
2024/01/16 10:31:54;;;;;;;9.93;4.35;;;;;;;;;;5052370;28;19920;-66
2024/01/16 10:34:21;;;;;;;13.50;5.03;;;;;;;;;;5050533;28;20546;-68
2024/01/16 10:36:46;;;;;;;14.18;5.95;;;;;;;;;;5051281;28;20037;-67
2024/01/16 10:39:13;;;;;;;15.30;6.43;;;;;;;;;;5051432;28;20049;-67
2024/01/16 10:41:39;;;;;;;11.38;4.90;;;;;;;;;;5052295;28;20111;-66
2024/01/16 10:44:06;;;;;;;10.60;5.28;;;;;;;;;;5051761;28;20124;-67
2024/01/16 10:46:32;;;;;;;9.45;4.10;;;;;;;;;;5042518;28;20040;-68
2024/01/16 10:49:02;;;;;;;11.85;5.22;;;;;;;;;;5049993;28;20070;-67
2024/01/16 10:51:29;;;;;;;12.98;4.55;;;;;;;;;;5047670;28;20029;-68
2024/01/16 10:53:59;;;;;;;8.73;5.03;;;;;;;;;;5052021;28;20385;-68
2024/01/16 10:56:27;;;;;;;10.20;4.22;;;;;;;;;;5033334;28;20111;-67
2024/01/16 10:59:12;;;;;;;8.20;4.28;;;;;;;;;;5047367;28;20033;-67
2024/01/16 11:01:38;;;;;;;12.77;4.57;;;;;;;;;;5035796;28;20056;-68
2024/01/16 11:04:04;;;;;;;9.35;4.45;;;;;;;;;;5046515;28;20025;-69
2024/01/16 11:06:30;;;;;;;12.52;4.78;;;;;;;;;;5046776;28;20037;-69
2024/01/16 11:08:56;;;;;;;11.73;4.35;;;;;;;;;;5047384;28;20048;-67
2024/01/16 11:11:21;;;;;;;14.27;5.05;;;;;;;;;;5046060;28;20500;-68
2024/01/16 11:13:48;;;;;;;13.05;5.28;;;;;;;;;;5045819;28;20423;-67
2024/01/16 11:16:14;;;;;;;8.23;4.00;;;;;;;;;;5046709;28;20037;-68
2024/01/16 11:18:39;;;;;;;7.68;4.18;;;;;;;;;;5080048;28;20090;-69
2024/01/16 11:21:07;;;;;;;9.75;4.75;;;;;;;;;;5047007;28;20074;-68
2024/01/16 11:23:34;;;;;;;11.25;3.83;;;;;;;;;;5079281;28;20527;-69
2024/01/16 11:26:00;;;;;;;10.20;4.55;;;;;;;;;;5045287;28;20025;-68
2024/01/16 11:28:31;;;;;;;9.45;4.13;;;;;;;;;;5045642;28;20029;-69
2024/01/16 11:30:57;;;;;;;7.18;3.97;;;;;;;;;;5046606;28;20035;-68
2024/01/16 11:33:31;;;;;;;11.38;4.55;;;;;;;;;;5047482;28;20375;-68
2024/01/16 11:35:57;;;;;;;8.65;3.50;;;;;;;;;;5046143;28;20040;-70
2024/01/16 11:38:26;;;;;;;7.65;4.00;;;;;;;;;;5046352;28;20025;-68
2024/01/16 11:40:53;;;;;;;9.40;4.05;;;;;;;;;;5045380;28;20445;-69
2024/01/16 11:43:37;;;;;;;6.32;3.35;;;;;;;;;;5038366;28;20140;-68
2024/01/16 11:46:02;;;;;;;;;;;;;;;;;;5040588;28;20036;-69
2024/01/16 11:48:28;;;;;;;7.43;3.08;;;;;;;;;;5044471;28;20375;-69
2024/01/16 11:50:54;;;;;;;6.28;2.83;;;;;;;;;;5045710;28;20028;-69
2024/01/16 11:53:39;;;;;;;6.78;2.83;;;;;;;;;;5043211;28;20040;-71
2024/01/16 11:56:10;;;;;;;6.47;2.58;;;;;;;;;;5037655;28;20037;-69
2024/01/16 11:58:45;;;;;;;4.70;2.53;;;;;;;;;;5034114;28;20048;-68
2024/01/16 12:01:12;;;;;;;9.52;2.92;;;;;;;;;;5044859;28;20051;-67
2024/01/16 12:03:37;;;;;;;11.02;2.60;;;;;;;;;;5045833;28;20070;-68
2024/01/16 12:06:06;;;;;;;8.32;2.55;;;;;;;;;;5045169;28;20392;-67
2024/01/16 12:08:32;;;;;;;7.88;2.70;;;;;;;;;;5045442;28;20096;-69
2024/01/16 12:10:57;;;;;;;4.10;2.40;;;;;;;;;;5040929;28;20110;-68
2024/01/16 12:13:23;;;;;;;7.13;2.45;;;;;;;;;;5028119;28;20041;-69
2024/01/16 12:15:48;;;;;;;5.88;2.42;;;;;;;;;;5042108;28;20044;-69
2024/01/16 12:18:20;;;;;;;5.47;1.75;;;;;;;;;;5044837;28;20131;-69
2024/01/16 12:20:48;;;;;;;3.25;1.65;;;;;;;;;;5044639;28;20127;-69
2024/01/16 12:23:13;;;;;;;4.00;1.50;;;;;;;;;;5044505;28;20183;-68
2024/01/16 12:25:39;;;;;;;3.10;1.23;;;;;;;;;;5043771;28;20108;-69
2024/01/16 12:28:06;;;;;;;3.90;1.42;;;;;;;;;;5045802;28;20392;-68
2024/01/16 12:30:32;;;;;;;5.35;1.00;;;;;;;;;;5036445;28;20048;-70
2024/01/16 12:33:08;;;;;;;3.83;1.20;;;;;;;;;;5045994;28;20070;-68
2024/01/16 12:35:41;;;;;;;3.35;1.08;;;;;;;;;;5045540;28;20036;-68
2024/01/16 12:38:10;;;;;;;4.03;1.60;;;;;;;;;;5045411;28;20114;-69
2024/01/16 12:40:40;;;;;;;5.30;1.15;;;;;;;;;;5045447;28;20045;-67
2024/01/16 12:43:06;;;;;;;4.63;1.38;;;;;;;;;;5046113;28;20041;-68
2024/01/16 12:45:32;;;;;;;3.60;1.73;;;;;;;;;;5041773;28;20040;-68
2024/01/16 12:47:58;;;;;;;4.22;1.40;;;;;;;;;;5045441;28;20041;-68
2024/01/16 12:50:29;;;;;;;5.28;1.75;;;;;;;;;;5044872;28;20029;-68
2024/01/16 12:53:23;;;;;;;3.97;1.63;;;;;;;;;;5042020;28;20048;-68
2024/01/16 12:55:57;;;;;;;4.72;1.30;;;;;;;;;;5035550;28;20048;-69
2024/01/16 12:58:24;;;;;;;4.18;1.25;;;;;;;;;;5038526;28;20041;-69
2024/01/16 13:00:51;;;;;;;4.60;1.70;;;;;;;;;;5040470;28;20059;-69
2024/01/16 13:03:21;;;;;;;5.63;1.75;;;;;;;;;;5026822;28;20393;-68
2024/01/16 13:05:58;;;;;;;5.68;2.05;;;;;;;;;;5041417;28;20033;-69
2024/01/16 13:08:25;;;;;;;5.13;1.77;;;;;;;;;;5042949;28;20094;-70
2024/01/16 13:11:12;;;;;;;10.10;2.25;;;;;;;;;;5041335;28;20091;-68
2024/01/16 13:13:37;;;;;;;2.90;1.50;;;;;;;;;;5075571;28;20484;-68
2024/01/16 13:16:07;;;;;;;2.95;1.58;;;;;;;;;;5044521;28;20037;-68
2024/01/16 13:18:33;;;;;;;7.20;1.20;;;;;;;;;;5043643;28;20039;-68
2024/01/16 13:20:59;;;;;;;1.95;1.17;;;;;;;;;;5048748;28;20439;-68
2024/01/16 13:23:25;;;;;;;5.63;1.83;;;;;;;;;;5047755;28;20071;-68
2024/01/16 13:25:51;;;;;;;3.28;1.10;;;;;;;;;;5080292;28;20045;-69
2024/01/16 13:28:18;;;;;;;4.35;1.70;;;;;;;;;;5040795;28;20623;-69
2024/01/16 13:30:44;;;;;;;4.80;1.30;;;;;;;;;;5046810;28;20029;-69
2024/01/16 13:33:10;;;;;;;4.43;1.40;;;;;;;;;;5079624;28;20598;-69
2024/01/16 13:35:39;;;;;;;6.80;1.35;;;;;;;;;;5048867;28;20040;-69
2024/01/16 13:38:04;;;;;;;3.28;1.65;;;;;;;;;;5067025;28;20037;-68
2024/01/16 13:40:30;;;;;;;2.97;1.52;;;;;;;;;;5045916;28;20391;-67
2024/01/16 13:42:56;;;;;;;2.80;1.40;;;;;;;;;;5047514;28;20037;-68
2024/01/16 13:45:22;;;;;;;8.98;1.80;;;;;;;;;;5046480;28;20051;-68
2024/01/16 13:47:48;;;;;;;2.97;1.58;;;;;;;;;;5048137;28;20526;-70
2024/01/16 13:50:13;;;;;;;3.47;1.67;;;;;;;;;;5048123;28;20045;-68
2024/01/16 13:52:40;;;;;;;4.80;1.58;;;;;;;;;;5046951;28;20434;-68
2024/01/16 13:55:06;;;;;;;4.65;1.55;;;;;;;;;;5047341;28;20036;-68
2024/01/16 13:57:32;;;;;;;8.82;2.25;;;;;;;;;;5046406;28;20129;-68
2024/01/16 13:59:58;;;;;;;6.43;1.15;;;;;;;;;;5045650;28;20115;-70
2024/01/16 14:02:23;;;;;;;5.78;1.63;;;;;;;;;;5046950;28;20029;-69
2024/01/16 14:04:48;;;;;;;3.22;1.27;;;;;;;;;;5045075;28;20040;-68
2024/01/16 14:07:14;;;;;;;4.00;1.60;;;;;;;;;;5080335;28;20521;-68
2024/01/16 14:09:43;;;;;;;3.40;1.63;;;;;;;;;;5047149;28;20527;-68
2024/01/16 14:12:08;;;;;;;4.55;1.42;;;;;;;;;;5046680;28;20037;-68
2024/01/16 14:14:34;;;;;;;9.10;2.17;;;;;;;;;;5081227;28;20033;-68
2024/01/16 14:17:00;;;;;;;3.00;1.73;;;;;;;;;;5047926;28;20127;-68
2024/01/16 14:19:27;;;;;;;5.13;1.70;;;;;;;;;;5080281;28;20373;-69
2024/01/16 14:21:52;;;;;;;3.95;1.30;;;;;;;;;;5048204;28;20029;-68
2024/01/16 14:24:17;;;;;;;7.93;1.80;;;;;;;;;;5046698;28;20033;-68
2024/01/16 14:26:44;;;;;;;2.30;1.00;;;;;;;;;;5047452;28;20045;-68
2024/01/16 14:29:09;;;;;;;2.45;1.23;;;;;;;;;;5047799;28;20033;-68
2024/01/16 14:31:35;;;;;;;3.05;1.13;;;;;;;;;;5047431;28;20048;-68
2024/01/16 14:34:00;;;;;;;2.78;1.20;;;;;;;;;;5049017;28;20094;-68
2024/01/16 14:36:25;;;;;;;29.60;13.52;;;;;;;;;;5047530;28;20036;-68
2024/01/16 14:38:51;;;;;;;10.20;4.95;;;;;;;;;;5047604;28;20036;-69
2024/01/16 14:41:16;;;;;;;11.70;4.82;;;;;;;;;;5047791;28;20032;-68